Terminal Aerodrome Forecast
Issued by NWS Charleston, SC

Home | Current Version | Previous Version | Text Only | Print | Product List | Glossary On
Versions: 1 2 3 4 5 6 7 8 9 10 11 12 13 14 15 16 17 18 19 20 21 22 23 24 25 26 27 28 29
000
FTUS42 KCHS 060526
TAFCHS
TAF
KCHS 060526Z 0606/0706 01015G23KT P6SM OVC012
      TEMPO 0609/0612 6SM -DZ BR OVC006
     FM061400 36012G18KT P6SM SCT010 BKN020
     FM061800 35010KT P6SM SCT015 BKN040
     FM062300 36005KT P6SM SCT040=

USA.gov is the U.S. government's official web portal to all federal, state and local government web resources and services.